sensor_id;sensor_type;location;lat;lon;timestamp;P1;durP1;ratioP1;P2;durP2;ratioP2
83398;SDS011;73326;43.228;0.106;2024-02-21T00:01:40;19.35;;;11.40;;
83398;SDS011;73326;43.228;0.106;2024-02-21T00:04:06;30.70;;;14.90;;
83398;SDS011;73326;43.228;0.106;2024-02-21T00:06:32;34.08;;;14.30;;
83398;SDS011;73326;43.228;0.106;2024-02-21T00:08:58;25.63;;;13.10;;
83398;SDS011;73326;43.228;0.106;2024-02-21T00:11:24;24.33;;;12.60;;
83398;SDS011;73326;43.228;0.106;2024-02-21T00:13:50;22.35;;;11.50;;
83398;SDS011;73326;43.228;0.106;2024-02-21T00:16:16;16.65;;;8.82;;
83398;SDS011;73326;43.228;0.106;2024-02-21T00:18:45;16.38;;;8.95;;
83398;SDS011;73326;43.228;0.106;2024-02-21T00:21:11;18.98;;;9.82;;
83398;SDS011;73326;43.228;0.106;2024-02-21T00:23:42;21.20;;;9.25;;
83398;SDS011;73326;43.228;0.106;2024-02-21T00:26:08;20.67;;;10.95;;
83398;SDS011;73326;43.228;0.106;2024-02-21T00:28:34;15.88;;;8.65;;
83398;SDS011;73326;43.228;0.106;2024-02-21T00:31:00;16.85;;;8.82;;
83398;SDS011;73326;43.228;0.106;2024-02-21T00:33:26;13.73;;;7.85;;
83398;SDS011;73326;43.228;0.106;2024-02-21T00:35:52;12.65;;;7.25;;
83398;SDS011;73326;43.228;0.106;2024-02-21T00:38:18;13.23;;;7.45;;
83398;SDS011;73326;43.228;0.106;2024-02-21T00:40:44;15.02;;;7.20;;
83398;SDS011;73326;43.228;0.106;2024-02-21T00:43:10;14.35;;;7.60;;
83398;SDS011;73326;43.228;0.106;2024-02-21T00:45:36;12.90;;;6.95;;
83398;SDS011;73326;43.228;0.106;2024-02-21T00:48:02;12.20;;;6.53;;
83398;SDS011;73326;43.228;0.106;2024-02-21T00:50:29;12.30;;;7.13;;
83398;SDS011;73326;43.228;0.106;2024-02-21T00:52:55;13.25;;;6.43;;
83398;SDS011;73326;43.228;0.106;2024-02-21T00:55:21;12.85;;;6.53;;
83398;SDS011;73326;43.228;0.106;2024-02-21T00:57:47;11.15;;;6.43;;
83398;SDS011;73326;43.228;0.106;2024-02-21T01:00:13;12.00;;;6.15;;
83398;SDS011;73326;43.228;0.106;2024-02-21T01:02:39;9.10;;;5.28;;
83398;SDS011;73326;43.228;0.106;2024-02-21T01:05:05;10.40;;;5.32;;
83398;SDS011;73326;43.228;0.106;2024-02-21T01:07:31;9.32;;;4.97;;
83398;SDS011;73326;43.228;0.106;2024-02-21T01:09:57;10.50;;;4.95;;
83398;SDS011;73326;43.228;0.106;2024-02-21T01:12:24;8.95;;;4.68;;
83398;SDS011;73326;43.228;0.106;2024-02-21T01:14:50;12.73;;;5.72;;
83398;SDS011;73326;43.228;0.106;2024-02-21T01:17:17;10.52;;;5.60;;
83398;SDS011;73326;43.228;0.106;2024-02-21T01:19:43;8.85;;;4.88;;
83398;SDS011;73326;43.228;0.106;2024-02-21T01:22:09;11.05;;;5.22;;
83398;SDS011;73326;43.228;0.106;2024-02-21T01:24:35;14.48;;;6.25;;
83398;SDS011;73326;43.228;0.106;2024-02-21T01:27:01;14.20;;;7.10;;
83398;SDS011;73326;43.228;0.106;2024-02-21T01:29:27;12.30;;;6.60;;
83398;SDS011;73326;43.228;0.106;2024-02-21T01:31:53;15.05;;;6.82;;
83398;SDS011;73326;43.228;0.106;2024-02-21T01:34:19;10.35;;;6.60;;
83398;SDS011;73326;43.228;0.106;2024-02-21T01:36:45;12.68;;;6.93;;
83398;SDS011;73326;43.228;0.106;2024-02-21T01:39:11;10.73;;;6.00;;
83398;SDS011;73326;43.228;0.106;2024-02-21T01:41:37;15.25;;;5.75;;
83398;SDS011;73326;43.228;0.106;2024-02-21T01:44:03;12.73;;;5.97;;
83398;SDS011;73326;43.228;0.106;2024-02-21T01:46:29;10.82;;;5.78;;
83398;SDS011;73326;43.228;0.106;2024-02-21T01:48:56;15.05;;;8.00;;
83398;SDS011;73326;43.228;0.106;2024-02-21T01:51:22;15.48;;;8.55;;
83398;SDS011;73326;43.228;0.106;2024-02-21T01:53:49;13.10;;;7.80;;
83398;SDS011;73326;43.228;0.106;2024-02-21T01:56:16;14.38;;;6.95;;
83398;SDS011;73326;43.228;0.106;2024-02-21T01:58:43;13.30;;;8.00;;
83398;SDS011;73326;43.228;0.106;2024-02-21T02:01:09;15.63;;;8.07;;
83398;SDS011;73326;43.228;0.106;2024-02-21T02:03:36;14.77;;;7.88;;
83398;SDS011;73326;43.228;0.106;2024-02-21T02:06:02;12.68;;;7.72;;
83398;SDS011;73326;43.228;0.106;2024-02-21T02:08:28;16.25;;;8.60;;
83398;SDS011;73326;43.228;0.106;2024-02-21T02:10:54;16.60;;;8.23;;
83398;SDS011;73326;43.228;0.106;2024-02-21T02:13:20;14.60;;;7.72;;
83398;SDS011;73326;43.228;0.106;2024-02-21T02:15:47;15.15;;;7.88;;
83398;SDS011;73326;43.228;0.106;2024-02-21T02:18:13;15.43;;;7.78;;
83398;SDS011;73326;43.228;0.106;2024-02-21T02:20:40;15.73;;;8.07;;
83398;SDS011;73326;43.228;0.106;2024-02-21T02:25:35;12.85;;;7.40;;
83398;SDS011;73326;43.228;0.106;2024-02-21T02:28:01;14.05;;;7.15;;
83398;SDS011;73326;43.228;0.106;2024-02-21T02:30:27;13.35;;;6.95;;
83398;SDS011;73326;43.228;0.106;2024-02-21T02:32:54;11.85;;;6.72;;
83398;SDS011;73326;43.228;0.106;2024-02-21T02:35:20;15.57;;;7.93;;
83398;SDS011;73326;43.228;0.106;2024-02-21T02:37:49;13.43;;;7.05;;
83398;SDS011;73326;43.228;0.106;2024-02-21T02:40:16;16.05;;;7.65;;
83398;SDS011;73326;43.228;0.106;2024-02-21T02:42:42;13.82;;;7.55;;
83398;SDS011;73326;43.228;0.106;2024-02-21T02:45:08;15.48;;;7.32;;
83398;SDS011;73326;43.228;0.106;2024-02-21T02:47:34;15.48;;;8.13;;
83398;SDS011;73326;43.228;0.106;2024-02-21T02:50:01;16.45;;;7.57;;
83398;SDS011;73326;43.228;0.106;2024-02-21T02:52:27;12.80;;;6.65;;
83398;SDS011;73326;43.228;0.106;2024-02-21T02:54:53;14.18;;;7.20;;
83398;SDS011;73326;43.228;0.106;2024-02-21T02:57:20;12.80;;;8.13;;
83398;SDS011;73326;43.228;0.106;2024-02-21T02:59:50;11.15;;;6.80;;
83398;SDS011;73326;43.228;0.106;2024-02-21T03:02:16;10.50;;;7.00;;
83398;SDS011;73326;43.228;0.106;2024-02-21T03:04:43;12.70;;;6.95;;
83398;SDS011;73326;43.228;0.106;2024-02-21T03:07:09;14.38;;;7.60;;
83398;SDS011;73326;43.228;0.106;2024-02-21T03:09:38;14.32;;;8.13;;
83398;SDS011;73326;43.228;0.106;2024-02-21T03:12:05;13.52;;;7.30;;
83398;SDS011;73326;43.228;0.106;2024-02-21T03:14:31;12.48;;;6.90;;
83398;SDS011;73326;43.228;0.106;2024-02-21T03:16:57;10.85;;;6.93;;
83398;SDS011;73326;43.228;0.106;2024-02-21T03:19:24;13.10;;;6.65;;
83398;SDS011;73326;43.228;0.106;2024-02-21T03:21:50;13.13;;;7.35;;
83398;SDS011;73326;43.228;0.106;2024-02-21T03:24:16;7.97;;;5.85;;
83398;SDS011;73326;43.228;0.106;2024-02-21T03:26:42;10.55;;;6.50;;
83398;SDS011;73326;43.228;0.106;2024-02-21T03:29:09;12.35;;;6.80;;
83398;SDS011;73326;43.228;0.106;2024-02-21T03:31:36;10.23;;;7.10;;
83398;SDS011;73326;43.228;0.106;2024-02-21T03:34:02;12.70;;;6.93;;
83398;SDS011;73326;43.228;0.106;2024-02-21T03:36:28;14.48;;;7.10;;
83398;SDS011;73326;43.228;0.106;2024-02-21T03:38:54;11.13;;;7.15;;
83398;SDS011;73326;43.228;0.106;2024-02-21T03:41:20;12.77;;;7.30;;
83398;SDS011;73326;43.228;0.106;2024-02-21T03:43:46;11.90;;;6.75;;
83398;SDS011;73326;43.228;0.106;2024-02-21T03:46:12;13.57;;;6.50;;
83398;SDS011;73326;43.228;0.106;2024-02-21T03:48:38;10.45;;;6.57;;
83398;SDS011;73326;43.228;0.106;2024-02-21T03:51:04;11.93;;;6.82;;
83398;SDS011;73326;43.228;0.106;2024-02-21T03:53:30;8.82;;;5.82;;
83398;SDS011;73326;43.228;0.106;2024-02-21T03:55:57;11.00;;;5.95;;
83398;SDS011;73326;43.228;0.106;2024-02-21T03:58:27;9.60;;;5.40;;
83398;SDS011;73326;43.228;0.106;2024-02-21T04:00:53;11.50;;;6.03;;
83398;SDS011;73326;43.228;0.106;2024-02-21T04:03:19;11.65;;;6.00;;
83398;SDS011;73326;43.228;0.106;2024-02-21T04:05:45;12.68;;;5.55;;
83398;SDS011;73326;43.228;0.106;2024-02-21T04:08:11;11.95;;;5.10;;
83398;SDS011;73326;43.228;0.106;2024-02-21T04:10:37;11.98;;;5.47;;
83398;SDS011;73326;43.228;0.106;2024-02-21T04:13:04;13.93;;;5.30;;
83398;SDS011;73326;43.228;0.106;2024-02-21T04:15:30;7.30;;;4.60;;
83398;SDS011;73326;43.228;0.106;2024-02-21T04:17:56;7.70;;;4.05;;
83398;SDS011;73326;43.228;0.106;2024-02-21T04:20:22;6.93;;;3.95;;
83398;SDS011;73326;43.228;0.106;2024-02-21T04:22:48;6.60;;;4.03;;
83398;SDS011;73326;43.228;0.106;2024-02-21T04:25:14;7.68;;;4.03;;
83398;SDS011;73326;43.228;0.106;2024-02-21T04:27:40;7.70;;;3.60;;
83398;SDS011;73326;43.228;0.106;2024-02-21T04:30:07;8.55;;;3.80;;
83398;SDS011;73326;43.228;0.106;2024-02-21T04:32:34;7.93;;;3.88;;
83398;SDS011;73326;43.228;0.106;2024-02-21T04:35:00;5.32;;;3.83;;
83398;SDS011;73326;43.228;0.106;2024-02-21T04:37:26;5.95;;;3.55;;
83398;SDS011;73326;43.228;0.106;2024-02-21T04:39:52;7.50;;;3.33;;
83398;SDS011;73326;43.228;0.106;2024-02-21T04:42:18;7.80;;;3.17;;
83398;SDS011;73326;43.228;0.106;2024-02-21T04:44:45;6.05;;;3.00;;
83398;SDS011;73326;43.228;0.106;2024-02-21T04:47:11;3.38;;;2.78;;
83398;SDS011;73326;43.228;0.106;2024-02-21T04:49:38;8.05;;;2.83;;
83398;SDS011;73326;43.228;0.106;2024-02-21T04:52:05;5.28;;;2.67;;
83398;SDS011;73326;43.228;0.106;2024-02-21T04:54:31;4.97;;;2.95;;
83398;SDS011;73326;43.228;0.106;2024-02-21T04:56:57;4.43;;;2.60;;
83398;SDS011;73326;43.228;0.106;2024-02-21T04:59:23;3.47;;;2.60;;
83398;SDS011;73326;43.228;0.106;2024-02-21T05:01:49;3.42;;;2.38;;
83398;SDS011;73326;43.228;0.106;2024-02-21T05:04:15;4.95;;;2.55;;
83398;SDS011;73326;43.228;0.106;2024-02-21T05:06:41;3.55;;;2.40;;
83398;SDS011;73326;43.228;0.106;2024-02-21T05:09:07;5.18;;;2.20;;
83398;SDS011;73326;43.228;0.106;2024-02-21T05:11:34;4.80;;;2.63;;
83398;SDS011;73326;43.228;0.106;2024-02-21T05:14:00;5.10;;;2.55;;
83398;SDS011;73326;43.228;0.106;2024-02-21T05:16:26;5.32;;;2.55;;
83398;SDS011;73326;43.228;0.106;2024-02-21T05:18:52;4.82;;;2.38;;
83398;SDS011;73326;43.228;0.106;2024-02-21T05:21:18;3.65;;;2.28;;
83398;SDS011;73326;43.228;0.106;2024-02-21T05:23:44;4.88;;;2.22;;
83398;SDS011;73326;43.228;0.106;2024-02-21T05:26:10;4.25;;;2.25;;
83398;SDS011;73326;43.228;0.106;2024-02-21T05:28:36;4.30;;;2.40;;
83398;SDS011;73326;43.228;0.106;2024-02-21T05:31:02;4.50;;;2.00;;
83398;SDS011;73326;43.228;0.106;2024-02-21T05:33:28;5.03;;;2.50;;
83398;SDS011;73326;43.228;0.106;2024-02-21T05:35:54;3.97;;;2.50;;
83398;SDS011;73326;43.228;0.106;2024-02-21T05:38:20;6.43;;;2.60;;
83398;SDS011;73326;43.228;0.106;2024-02-21T05:40:46;3.38;;;2.50;;
83398;SDS011;73326;43.228;0.106;2024-02-21T05:43:12;3.33;;;2.33;;
83398;SDS011;73326;43.228;0.106;2024-02-21T05:45:38;4.13;;;2.40;;
83398;SDS011;73326;43.228;0.106;2024-02-21T05:48:04;3.80;;;2.60;;
83398;SDS011;73326;43.228;0.106;2024-02-21T05:50:30;4.80;;;2.58;;
83398;SDS011;73326;43.228;0.106;2024-02-21T05:52:57;5.30;;;2.60;;
83398;SDS011;73326;43.228;0.106;2024-02-21T05:55:23;4.03;;;2.60;;
83398;SDS011;73326;43.228;0.106;2024-02-21T05:57:53;2.72;;;2.30;;
83398;SDS011;73326;43.228;0.106;2024-02-21T06:00:20;5.15;;;2.40;;
83398;SDS011;73326;43.228;0.106;2024-02-21T06:02:46;4.00;;;2.78;;
83398;SDS011;73326;43.228;0.106;2024-02-21T06:05:12;4.10;;;2.50;;
83398;SDS011;73326;43.228;0.106;2024-02-21T06:07:38;4.78;;;3.00;;
83398;SDS011;73326;43.228;0.106;2024-02-21T06:10:04;4.47;;;3.20;;
83398;SDS011;73326;43.228;0.106;2024-02-21T06:12:31;6.90;;;4.63;;
83398;SDS011;73326;43.228;0.106;2024-02-21T06:14:57;7.25;;;4.93;;
83398;SDS011;73326;43.228;0.106;2024-02-21T06:17:23;5.43;;;3.40;;
83398;SDS011;73326;43.228;0.106;2024-02-21T06:19:49;5.70;;;2.83;;
83398;SDS011;73326;43.228;0.106;2024-02-21T06:22:15;2.53;;;1.98;;
83398;SDS011;73326;43.228;0.106;2024-02-21T06:24:41;3.30;;;1.77;;
83398;SDS011;73326;43.228;0.106;2024-02-21T06:27:07;2.92;;;1.75;;
83398;SDS011;73326;43.228;0.106;2024-02-21T06:29:33;3.42;;;2.47;;
83398;SDS011;73326;43.228;0.106;2024-02-21T06:31:59;5.93;;;2.85;;
83398;SDS011;73326;43.228;0.106;2024-02-21T06:34:25;4.38;;;2.53;;
83398;SDS011;73326;43.228;0.106;2024-02-21T06:36:51;5.80;;;2.17;;
83398;SDS011;73326;43.228;0.106;2024-02-21T06:39:17;2.03;;;1.55;;
83398;SDS011;73326;43.228;0.106;2024-02-21T06:41:44;2.90;;;1.67;;
83398;SDS011;73326;43.228;0.106;2024-02-21T06:44:10;2.65;;;1.45;;
83398;SDS011;73326;43.228;0.106;2024-02-21T06:46:36;1.98;;;1.48;;
83398;SDS011;73326;43.228;0.106;2024-02-21T06:49:02;2.53;;;1.40;;
83398;SDS011;73326;43.228;0.106;2024-02-21T06:51:31;1.65;;;1.20;;
83398;SDS011;73326;43.228;0.106;2024-02-21T06:53:58;2.75;;;1.38;;
83398;SDS011;73326;43.228;0.106;2024-02-21T06:56:24;2.78;;;1.40;;
83398;SDS011;73326;43.228;0.106;2024-02-21T06:58:56;2.83;;;1.10;;
83398;SDS011;73326;43.228;0.106;2024-02-21T07:01:23;3.00;;;2.22;;
83398;SDS011;73326;43.228;0.106;2024-02-21T07:03:49;1.88;;;1.73;;
83398;SDS011;73326;43.228;0.106;2024-02-21T07:06:15;3.30;;;1.90;;
83398;SDS011;73326;43.228;0.106;2024-02-21T07:08:41;2.00;;;1.75;;
83398;SDS011;73326;43.228;0.106;2024-02-21T07:11:07;4.25;;;1.70;;
83398;SDS011;73326;43.228;0.106;2024-02-21T07:13:33;3.38;;;1.88;;
83398;SDS011;73326;43.228;0.106;2024-02-21T07:15:59;2.20;;;1.60;;
83398;SDS011;73326;43.228;0.106;2024-02-21T07:18:25;3.83;;;1.98;;
83398;SDS011;73326;43.228;0.106;2024-02-21T07:20:51;3.55;;;1.65;;
83398;SDS011;73326;43.228;0.106;2024-02-21T07:23:18;3.72;;;1.65;;
83398;SDS011;73326;43.228;0.106;2024-02-21T07:25:44;16.40;;;2.53;;
83398;SDS011;73326;43.228;0.106;2024-02-21T07:28:10;4.40;;;1.60;;
83398;SDS011;73326;43.228;0.106;2024-02-21T07:30:36;5.85;;;1.80;;
83398;SDS011;73326;43.228;0.106;2024-02-21T07:33:02;3.33;;;1.88;;
83398;SDS011;73326;43.228;0.106;2024-02-21T07:35:28;3.70;;;1.90;;
83398;SDS011;73326;43.228;0.106;2024-02-21T07:37:54;1.65;;;1.35;;
83398;SDS011;73326;43.228;0.106;2024-02-21T07:40:22;2.30;;;1.40;;
83398;SDS011;73326;43.228;0.106;2024-02-21T07:42:48;3.70;;;1.45;;
83398;SDS011;73326;43.228;0.106;2024-02-21T07:45:14;2.10;;;1.30;;
83398;SDS011;73326;43.228;0.106;2024-02-21T07:47:40;2.95;;;1.70;;
83398;SDS011;73326;43.228;0.106;2024-02-21T07:50:06;5.00;;;2.00;;
83398;SDS011;73326;43.228;0.106;2024-02-21T07:52:33;3.38;;;1.95;;
83398;SDS011;73326;43.228;0.106;2024-02-21T07:54:59;4.00;;;2.20;;
83398;SDS011;73326;43.228;0.106;2024-02-21T07:57:25;2.22;;;1.70;;
83398;SDS011;73326;43.228;0.106;2024-02-21T07:59:51;2.75;;;2.03;;
83398;SDS011;73326;43.228;0.106;2024-02-21T08:02:17;2.03;;;1.77;;
83398;SDS011;73326;43.228;0.106;2024-02-21T08:04:43;4.20;;;1.98;;
83398;SDS011;73326;43.228;0.106;2024-02-21T08:07:09;3.72;;;1.85;;
83398;SDS011;73326;43.228;0.106;2024-02-21T08:09:35;5.10;;;1.73;;
83398;SDS011;73326;43.228;0.106;2024-02-21T08:12:03;3.08;;;1.67;;
83398;SDS011;73326;43.228;0.106;2024-02-21T08:14:29;3.70;;;1.30;;
83398;SDS011;73326;43.228;0.106;2024-02-21T08:16:55;3.67;;;1.70;;
83398;SDS011;73326;43.228;0.106;2024-02-21T08:19:21;4.97;;;1.67;;
83398;SDS011;73326;43.228;0.106;2024-02-21T08:21:48;4.70;;;1.90;;
83398;SDS011;73326;43.228;0.106;2024-02-21T08:24:14;3.63;;;1.90;;
83398;SDS011;73326;43.228;0.106;2024-02-21T08:26:40;4.15;;;2.00;;
83398;SDS011;73326;43.228;0.106;2024-02-21T08:29:06;3.50;;;1.65;;
83398;SDS011;73326;43.228;0.106;2024-02-21T08:31:32;2.92;;;1.40;;
83398;SDS011;73326;43.228;0.106;2024-02-21T08:34:02;2.67;;;1.17;;
83398;SDS011;73326;43.228;0.106;2024-02-21T08:36:32;2.47;;;1.38;;
83398;SDS011;73326;43.228;0.106;2024-02-21T08:38:58;3.13;;;1.50;;
83398;SDS011;73326;43.228;0.106;2024-02-21T08:41:24;3.50;;;1.60;;
83398;SDS011;73326;43.228;0.106;2024-02-21T08:43:51;3.00;;;1.67;;
83398;SDS011;73326;43.228;0.106;2024-02-21T08:46:17;3.95;;;1.50;;
83398;SDS011;73326;43.228;0.106;2024-02-21T08:48:43;3.15;;;1.40;;
83398;SDS011;73326;43.228;0.106;2024-02-21T08:51:13;4.22;;;1.50;;
83398;SDS011;73326;43.228;0.106;2024-02-21T08:53:39;2.83;;;1.45;;
83398;SDS011;73326;43.228;0.106;2024-02-21T08:56:05;4.45;;;1.65;;
83398;SDS011;73326;43.228;0.106;2024-02-21T08:58:32;2.22;;;1.42;;
83398;SDS011;73326;43.228;0.106;2024-02-21T09:00:58;2.58;;;1.20;;
83398;SDS011;73326;43.228;0.106;2024-02-21T09:03:24;3.20;;;1.40;;
83398;SDS011;73326;43.228;0.106;2024-02-21T09:05:50;1.38;;;1.20;;
83398;SDS011;73326;43.228;0.106;2024-02-21T09:08:16;2.53;;;1.15;;
83398;SDS011;73326;43.228;0.106;2024-02-21T09:10:43;2.63;;;1.10;;
83398;SDS011;73326;43.228;0.106;2024-02-21T09:13:09;1.42;;;1.10;;
83398;SDS011;73326;43.228;0.106;2024-02-21T09:15:35;2.50;;;1.25;;
83398;SDS011;73326;43.228;0.106;2024-02-21T09:18:01;1.80;;;1.30;;
83398;SDS011;73326;43.228;0.106;2024-02-21T09:20:27;3.80;;;1.38;;
83398;SDS011;73326;43.228;0.106;2024-02-21T09:22:54;2.35;;;1.20;;
83398;SDS011;73326;43.228;0.106;2024-02-21T09:25:20;2.58;;;1.42;;
83398;SDS011;73326;43.228;0.106;2024-02-21T09:27:46;2.00;;;1.15;;
83398;SDS011;73326;43.228;0.106;2024-02-21T09:30:12;3.05;;;1.10;;
83398;SDS011;73326;43.228;0.106;2024-02-21T09:32:38;2.38;;;1.45;;
83398;SDS011;73326;43.228;0.106;2024-02-21T09:35:04;2.05;;;1.30;;
83398;SDS011;73326;43.228;0.106;2024-02-21T09:37:31;1.83;;;1.15;;
83398;SDS011;73326;43.228;0.106;2024-02-21T09:39:57;4.90;;;1.10;;
83398;SDS011;73326;43.228;0.106;2024-02-21T09:42:24;2.50;;;1.23;;
83398;SDS011;73326;43.228;0.106;2024-02-21T09:44:55;3.63;;;1.40;;
83398;SDS011;73326;43.228;0.106;2024-02-21T09:47:26;1.55;;;1.25;;
83398;SDS011;73326;43.228;0.106;2024-02-21T09:49:56;2.72;;;1.10;;
83398;SDS011;73326;43.228;0.106;2024-02-21T09:52:23;2.92;;;1.35;;
83398;SDS011;73326;43.228;0.106;2024-02-21T09:54:50;1.58;;;1.30;;
83398;SDS011;73326;43.228;0.106;2024-02-21T09:57:17;2.65;;;1.33;;
83398;SDS011;73326;43.228;0.106;2024-02-21T09:59:44;1.75;;;1.42;;
83398;SDS011;73326;43.228;0.106;2024-02-21T10:02:11;11.13;;;6.45;;
83398;SDS011;73326;43.228;0.106;2024-02-21T10:04:39;4.07;;;3.20;;
83398;SDS011;73326;43.228;0.106;2024-02-21T10:07:05;2.83;;;2.22;;
83398;SDS011;73326;43.228;0.106;2024-02-21T10:09:32;2.72;;;1.38;;
83398;SDS011;73326;43.228;0.106;2024-02-21T10:12:07;2.72;;;1.50;;
83398;SDS011;73326;43.228;0.106;2024-02-21T10:14:34;2.95;;;1.60;;
83398;SDS011;73326;43.228;0.106;2024-02-21T10:17:00;2.33;;;1.80;;
83398;SDS011;73326;43.228;0.106;2024-02-21T10:19:27;1.55;;;1.30;;
83398;SDS011;73326;43.228;0.106;2024-02-21T10:22:03;3.53;;;2.20;;
83398;SDS011;73326;43.228;0.106;2024-02-21T10:24:30;3.10;;;1.50;;
83398;SDS011;73326;43.228;0.106;2024-02-21T10:27:03;2.60;;;1.98;;
83398;SDS011;73326;43.228;0.106;2024-02-21T10:34:34;1.67;;;1.30;;
83398;SDS011;73326;43.228;0.106;2024-02-21T10:37:01;2.17;;;0.85;;
83398;SDS011;73326;43.228;0.106;2024-02-21T10:39:28;3.60;;;1.20;;
83398;SDS011;73326;43.228;0.106;2024-02-21T10:41:54;5.60;;;2.10;;
83398;SDS011;73326;43.228;0.106;2024-02-21T10:44:22;2.50;;;1.20;;
83398;SDS011;73326;43.228;0.106;2024-02-21T10:46:49;0.80;;;0.68;;
83398;SDS011;73326;43.228;0.106;2024-02-21T10:49:25;0.55;;;0.55;;
83398;SDS011;73326;43.228;0.106;2024-02-21T10:51:54;1.70;;;0.50;;
83398;SDS011;73326;43.228;0.106;2024-02-21T10:54:24;0.70;;;0.70;;
83398;SDS011;73326;43.228;0.106;2024-02-21T10:56:56;0.65;;;0.60;;
83398;SDS011;73326;43.228;0.106;2024-02-21T10:59:22;0.75;;;0.52;;
83398;SDS011;73326;43.228;0.106;2024-02-21T11:01:48;0.50;;;0.50;;
83398;SDS011;73326;43.228;0.106;2024-02-21T11:04:14;0.65;;;0.63;;
83398;SDS011;73326;43.228;0.106;2024-02-21T11:06:41;0.77;;;0.57;;
83398;SDS011;73326;43.228;0.106;2024-02-21T11:09:08;1.50;;;0.90;;
83398;SDS011;73326;43.228;0.106;2024-02-21T11:11:35;0.80;;;0.63;;
83398;SDS011;73326;43.228;0.106;2024-02-21T11:16:34;1.10;;;0.60;;
83398;SDS011;73326;43.228;0.106;2024-02-21T11:19:04;0.65;;;0.65;;
83398;SDS011;73326;43.228;0.106;2024-02-21T11:21:34;0.60;;;0.60;;
83398;SDS011;73326;43.228;0.106;2024-02-21T11:24:01;1.67;;;0.70;;
83398;SDS011;73326;43.228;0.106;2024-02-21T11:26:28;1.67;;;0.73;;
83398;SDS011;73326;43.228;0.106;2024-02-21T11:29:00;2.08;;;0.70;;
83398;SDS011;73326;43.228;0.106;2024-02-21T11:31:40;0.65;;;0.60;;
83398;SDS011;73326;43.228;0.106;2024-02-21T11:34:12;1.13;;;0.60;;
83398;SDS011;73326;43.228;0.106;2024-02-21T11:36:48;0.90;;;0.70;;
83398;SDS011;73326;43.228;0.106;2024-02-21T11:39:33;1.23;;;0.70;;
83398;SDS011;73326;43.228;0.106;2024-02-21T11:42:05;1.05;;;0.70;;
83398;SDS011;73326;43.228;0.106;2024-02-21T11:44:36;1.00;;;0.70;;
83398;SDS011;73326;43.228;0.106;2024-02-21T11:47:07;0.82;;;0.77;;
83398;SDS011;73326;43.228;0.106;2024-02-21T11:49:44;0.63;;;0.63;;
83398;SDS011;73326;43.228;0.106;2024-02-21T11:52:11;1.05;;;0.52;;
83398;SDS011;73326;43.228;0.106;2024-02-21T11:54:40;0.80;;;0.70;;
83398;SDS011;73326;43.228;0.106;2024-02-21T11:57:06;1.00;;;0.90;;
83398;SDS011;73326;43.228;0.106;2024-02-21T11:59:33;1.83;;;1.00;;
83398;SDS011;73326;43.228;0.106;2024-02-21T12:02:02;2.15;;;1.20;;
83398;SDS011;73326;43.228;0.106;2024-02-21T12:04:29;1.88;;;1.05;;
83398;SDS011;73326;43.228;0.106;2024-02-21T12:06:58;1.08;;;0.90;;
83398;SDS011;73326;43.228;0.106;2024-02-21T12:09:24;2.65;;;1.17;;
83398;SDS011;73326;43.228;0.106;2024-02-21T12:12:00;1.80;;;1.30;;
83398;SDS011;73326;43.228;0.106;2024-02-21T12:14:28;1.27;;;1.08;;
83398;SDS011;73326;43.228;0.106;2024-02-21T12:16:55;2.13;;;1.10;;
83398;SDS011;73326;43.228;0.106;2024-02-21T12:19:21;3.72;;;0.88;;
83398;SDS011;73326;43.228;0.106;2024-02-21T12:21:48;1.35;;;0.90;;
83398;SDS011;73326;43.228;0.106;2024-02-21T12:24:24;1.10;;;1.00;;
83398;SDS011;73326;43.228;0.106;2024-02-21T12:26:51;3.28;;;1.15;;
83398;SDS011;73326;43.228;0.106;2024-02-21T12:29:17;1.10;;;1.00;;
83398;SDS011;73326;43.228;0.106;2024-02-21T12:31:43;2.65;;;1.20;;
83398;SDS011;73326;43.228;0.106;2024-02-21T12:34:10;1.30;;;0.90;;
83398;SDS011;73326;43.228;0.106;2024-02-21T12:36:40;1.70;;;1.00;;
83398;SDS011;73326;43.228;0.106;2024-02-21T12:39:07;2.33;;;1.00;;
83398;SDS011;73326;43.228;0.106;2024-02-21T12:41:33;1.73;;;1.10;;
83398;SDS011;73326;43.228;0.106;2024-02-21T12:44:02;1.23;;;1.10;;
83398;SDS011;73326;43.228;0.106;2024-02-21T12:46:28;1.50;;;1.13;;
83398;SDS011;73326;43.228;0.106;2024-02-21T12:48:54;2.03;;;1.10;;
83398;SDS011;73326;43.228;0.106;2024-02-21T12:51:20;2.05;;;1.08;;
83398;SDS011;73326;43.228;0.106;2024-02-21T12:53:49;2.88;;;1.30;;
83398;SDS011;73326;43.228;0.106;2024-02-21T12:56:15;2.72;;;1.13;;
83398;SDS011;73326;43.228;0.106;2024-02-21T12:58:42;2.50;;;1.23;;
83398;SDS011;73326;43.228;0.106;2024-02-21T13:01:08;2.55;;;1.38;;
83398;SDS011;73326;43.228;0.106;2024-02-21T13:03:34;1.98;;;1.30;;
83398;SDS011;73326;43.228;0.106;2024-02-21T13:06:00;1.67;;;1.35;;
83398;SDS011;73326;43.228;0.106;2024-02-21T13:08:26;4.60;;;1.30;;
83398;SDS011;73326;43.228;0.106;2024-02-21T13:10:52;2.55;;;1.10;;
83398;SDS011;73326;43.228;0.106;2024-02-21T13:13:18;1.92;;;1.35;;
83398;SDS011;73326;43.228;0.106;2024-02-21T13:15:44;3.08;;;1.13;;
83398;SDS011;73326;43.228;0.106;2024-02-21T13:18:10;2.20;;;1.35;;
83398;SDS011;73326;43.228;0.106;2024-02-21T13:20:36;1.90;;;1.40;;
83398;SDS011;73326;43.228;0.106;2024-02-21T13:23:03;2.00;;;1.30;;
83398;SDS011;73326;43.228;0.106;2024-02-21T13:25:29;3.72;;;1.38;;
83398;SDS011;73326;43.228;0.106;2024-02-21T13:27:55;5.40;;;1.40;;
83398;SDS011;73326;43.228;0.106;2024-02-21T13:30:21;1.40;;;1.30;;
83398;SDS011;73326;43.228;0.106;2024-02-21T13:32:47;1.20;;;1.10;;
83398;SDS011;73326;43.228;0.106;2024-02-21T13:35:14;2.53;;;1.20;;
83398;SDS011;73326;43.228;0.106;2024-02-21T13:37:40;3.28;;;1.27;;
83398;SDS011;73326;43.228;0.106;2024-02-21T13:40:07;1.33;;;1.00;;
83398;SDS011;73326;43.228;0.106;2024-02-21T13:42:36;6.85;;;1.40;;
83398;SDS011;73326;43.228;0.106;2024-02-21T13:45:03;1.40;;;1.30;;
83398;SDS011;73326;43.228;0.106;2024-02-21T13:47:32;1.17;;;0.90;;
83398;SDS011;73326;43.228;0.106;2024-02-21T13:49:59;1.73;;;1.30;;
83398;SDS011;73326;43.228;0.106;2024-02-21T13:52:25;2.10;;;1.27;;
83398;SDS011;73326;43.228;0.106;2024-02-21T13:54:51;5.18;;;1.45;;
83398;SDS011;73326;43.228;0.106;2024-02-21T13:57:18;1.58;;;1.15;;
83398;SDS011;73326;43.228;0.106;2024-02-21T13:59:43;3.13;;;1.30;;
83398;SDS011;73326;43.228;0.106;2024-02-21T14:02:09;1.27;;;1.15;;
83398;SDS011;73326;43.228;0.106;2024-02-21T14:04:35;1.40;;;1.27;;
83398;SDS011;73326;43.228;0.106;2024-02-21T14:07:01;4.65;;;1.20;;
83398;SDS011;73326;43.228;0.106;2024-02-21T14:09:28;3.33;;;1.13;;
83398;SDS011;73326;43.228;0.106;2024-02-21T14:12:00;2.28;;;1.33;;
83398;SDS011;73326;43.228;0.106;2024-02-21T14:14:26;1.33;;;1.10;;
83398;SDS011;73326;43.228;0.106;2024-02-21T14:16:52;3.03;;;1.00;;
83398;SDS011;73326;43.228;0.106;2024-02-21T14:19:18;2.35;;;1.00;;
83398;SDS011;73326;43.228;0.106;2024-02-21T14:21:45;2.05;;;1.35;;
83398;SDS011;73326;43.228;0.106;2024-02-21T14:24:11;1.67;;;1.00;;
83398;SDS011;73326;43.228;0.106;2024-02-21T14:26:37;1.40;;;1.05;;
83398;SDS011;73326;43.228;0.106;2024-02-21T14:29:06;1.67;;;1.13;;
83398;SDS011;73326;43.228;0.106;2024-02-21T14:31:32;6.28;;;1.55;;
83398;SDS011;73326;43.228;0.106;2024-02-21T14:33:58;5.65;;;1.48;;
83398;SDS011;73326;43.228;0.106;2024-02-21T14:36:25;1.83;;;1.00;;
83398;SDS011;73326;43.228;0.106;2024-02-21T14:38:51;1.30;;;1.05;;
83398;SDS011;73326;43.228;0.106;2024-02-21T14:41:18;1.30;;;1.05;;
83398;SDS011;73326;43.228;0.106;2024-02-21T14:43:44;1.83;;;1.23;;
83398;SDS011;73326;43.228;0.106;2024-02-21T14:46:11;1.83;;;1.20;;
83398;SDS011;73326;43.228;0.106;2024-02-21T14:48:37;1.63;;;1.17;;
83398;SDS011;73326;43.228;0.106;2024-02-21T14:51:03;1.67;;;1.00;;